Sao Goncalo, Brazil
Current Conditions -  °F | °C
As of 9:00 AM on Saturday 25 Oct 2014 (Local Time) from SBJU Reporting Station
Broken Clouds Broken Clouds  
Wind Chill: 84°   Ceiling: 2000
Heat Index: 87°   Visibility: 6mi
Dew Point: 68°   Wind: 14mph
Humidity: 58%   Direction: 130°SE
Pressure: 30.06"   Gusts: NA
Location:  7.52°S, 39.77°W
Report Text: SBJU 251200Z 13012KT 9999 BKN020 29/20 Q1018
Loading
Personal Weather Stations






























Interactive Weather Map
Tropical Storm Tracking
New forecast layout! Learn more

10-Day Weather Forecast

Advertisements
Track Severe Weather on mobile